sensor_id;sensor_type;location;lat;lon;timestamp;pressure;altitude;pressure_sealevel;temperature;humidity
50302;BME280;36550;50.472;19.744;2022-07-21T00:00:38;98469.78;;;15.96;70.01
50302;BME280;36550;50.472;19.744;2022-07-21T00:03:23;98463.16;;;15.94;69.98
50302;BME280;36550;50.472;19.744;2022-07-21T00:06:07;98463.42;;;15.90;69.82
50302;BME280;36550;50.472;19.744;2022-07-21T00:08:51;98459.17;;;15.86;69.86
50302;BME280;36550;50.472;19.744;2022-07-21T00:11:36;98458.09;;;15.85;69.93
50302;BME280;36550;50.472;19.744;2022-07-21T00:14:21;98461.53;;;15.83;70.00
50302;BME280;36550;50.472;19.744;2022-07-21T00:17:05;98460.17;;;15.80;70.00
50302;BME280;36550;50.472;19.744;2022-07-21T00:19:49;98459.89;;;15.76;70.04
50302;BME280;36550;50.472;19.744;2022-07-21T00:22:33;98466.98;;;15.71;70.04
50302;BME280;36550;50.472;19.744;2022-07-21T00:25:18;98468.27;;;15.66;70.10
50302;BME280;36550;50.472;19.744;2022-07-21T00:28:03;98467.47;;;15.63;70.26
50302;BME280;36550;50.472;19.744;2022-07-21T00:30:48;98464.83;;;15.63;70.30
50302;BME280;36550;50.472;19.744;2022-07-21T00:33:32;98467.98;;;15.62;70.43
50302;BME280;36550;50.472;19.744;2022-07-21T00:36:18;98462.19;;;15.65;70.66
50302;BME280;36550;50.472;19.744;2022-07-21T00:39:03;98459.54;;;15.65;70.97
50302;BME280;36550;50.472;19.744;2022-07-21T00:41:47;98451.34;;;15.67;70.95
50302;BME280;36550;50.472;19.744;2022-07-21T00:44:32;98451.06;;;15.66;70.92
50302;BME280;36550;50.472;19.744;2022-07-21T00:47:21;98454.25;;;15.65;70.92
50302;BME280;36550;50.472;19.744;2022-07-21T00:50:11;98455.85;;;15.66;71.01
50302;BME280;36550;50.472;19.744;2022-07-21T00:52:59;98458.22;;;15.65;70.97
50302;BME280;36550;50.472;19.744;2022-07-21T00:55:44;98462.72;;;15.65;71.02
50302;BME280;36550;50.472;19.744;2022-07-21T00:58:28;98464.83;;;15.63;71.35
50302;BME280;36550;50.472;19.744;2022-07-21T01:01:12;98465.36;;;15.65;71.44
50302;BME280;36550;50.472;19.744;2022-07-21T01:03:57;98469.34;;;15.65;71.45
50302;BME280;36550;50.472;19.744;2022-07-21T01:06:41;98468.52;;;15.62;71.48
50302;BME280;36550;50.472;19.744;2022-07-21T01:09:25;98466.15;;;15.63;71.50
50302;BME280;36550;50.472;19.744;2022-07-21T01:12:10;98465.36;;;15.65;71.52
50302;BME280;36550;50.472;19.744;2022-07-21T01:14:54;98474.09;;;15.65;71.56
50302;BME280;36550;50.472;19.744;2022-07-21T01:17:39;98466.94;;;15.66;71.65
50302;BME280;36550;50.472;19.744;2022-07-21T01:20:25;98465.91;;;15.67;71.67
50302;BME280;36550;50.472;19.744;2022-07-21T01:23:11;98469.87;;;15.67;71.70
50302;BME280;36550;50.472;19.744;2022-07-21T01:25:56;98467.98;;;15.62;71.69
50302;BME280;36550;50.472;19.744;2022-07-21T01:28:40;98469.02;;;15.58;71.66
50302;BME280;36550;50.472;19.744;2022-07-21T01:31:24;98471.94;;;15.57;71.71
50302;BME280;36550;50.472;19.744;2022-07-21T01:34:10;98473.52;;;15.55;71.60
50302;BME280;36550;50.472;19.744;2022-07-21T01:36:54;98468.22;;;15.55;71.61
50302;BME280;36550;50.472;19.744;2022-07-21T01:39:39;98467.15;;;15.54;71.62
50302;BME280;36550;50.472;19.744;2022-07-21T01:42:42;98469.76;;;15.51;71.65
50302;BME280;36550;50.472;19.744;2022-07-21T01:45:27;98473.19;;;15.47;71.67
50302;BME280;36550;50.472;19.744;2022-07-21T01:48:11;98472.89;;;15.43;71.70
50302;BME280;36550;50.472;19.744;2022-07-21T01:50:56;98469.17;;;15.39;71.65
50302;BME280;36550;50.472;19.744;2022-07-21T01:53:40;98474.70;;;15.35;71.52
50302;BME280;36550;50.472;19.744;2022-07-21T01:56:25;98481.47;;;15.20;72.72
50302;BME280;36550;50.472;19.744;2022-07-21T01:59:10;98490.39;;;15.14;73.15
50302;BME280;36550;50.472;19.744;2022-07-21T02:01:54;98484.80;;;15.11;74.45
50302;BME280;36550;50.472;19.744;2022-07-21T02:04:38;98484.30;;;15.11;73.93
50302;BME280;36550;50.472;19.744;2022-07-21T02:07:22;98476.09;;;15.10;73.52
50302;BME280;36550;50.472;19.744;2022-07-21T02:10:07;98472.12;;;15.10;73.53
50302;BME280;36550;50.472;19.744;2022-07-21T02:12:51;98468.44;;;15.11;73.57
50302;BME280;36550;50.472;19.744;2022-07-21T02:15:36;98466.59;;;15.12;73.47
50302;BME280;36550;50.472;19.744;2022-07-21T02:18:20;98464.77;;;15.15;73.53
50302;BME280;36550;50.472;19.744;2022-07-21T02:21:05;98465.06;;;15.18;73.53
50302;BME280;36550;50.472;19.744;2022-07-21T02:23:49;98470.36;;;15.21;73.28
50302;BME280;36550;50.472;19.744;2022-07-21T02:26:34;98473.00;;;15.21;73.13
50302;BME280;36550;50.472;19.744;2022-07-21T02:29:18;98473.50;;;15.18;72.95
50302;BME280;36550;50.472;19.744;2022-07-21T02:32:03;98472.95;;;15.13;72.73
50302;BME280;36550;50.472;19.744;2022-07-21T02:34:48;98470.50;;;15.07;72.71
50302;BME280;36550;50.472;19.744;2022-07-21T02:37:32;98464.92;;;15.03;72.70
50302;BME280;36550;50.472;19.744;2022-07-21T02:40:17;98461.20;;;14.99;72.79
50302;BME280;36550;50.472;19.744;2022-07-21T02:43:01;98453.52;;;14.97;72.90
50302;BME280;36550;50.472;19.744;2022-07-21T02:45:46;98451.41;;;14.97;72.84
50302;BME280;36550;50.472;19.744;2022-07-21T02:48:31;98449.54;;;14.95;72.75
50302;BME280;36550;50.472;19.744;2022-07-21T02:51:15;98448.77;;;14.97;72.83
50302;BME280;36550;50.472;19.744;2022-07-21T02:53:59;98445.30;;;14.96;72.87
50302;BME280;36550;50.472;19.744;2022-07-21T02:56:43;98442.40;;;14.95;72.90
50302;BME280;36550;50.472;19.744;2022-07-21T02:59:28;98445.05;;;14.95;72.98
50302;BME280;36550;50.472;19.744;2022-07-21T03:02:12;98449.55;;;14.97;72.98
50302;BME280;36550;50.472;19.744;2022-07-21T03:04:56;98446.13;;;14.99;72.95
50302;BME280;36550;50.472;19.744;2022-07-21T03:07:40;98452.23;;;15.03;72.93
50302;BME280;36550;50.472;19.744;2022-07-21T03:10:25;98449.34;;;15.04;72.86
50302;BME280;36550;50.472;19.744;2022-07-21T03:13:09;98451.75;;;15.06;72.67
50302;BME280;36550;50.472;19.744;2022-07-21T03:15:53;98450.63;;;15.01;72.47
50302;BME280;36550;50.472;19.744;2022-07-21T03:18:37;98447.70;;;14.98;72.50
50302;BME280;36550;50.472;19.744;2022-07-21T03:21:22;98449.31;;;15.01;72.48
50302;BME280;36550;50.472;19.744;2022-07-21T03:24:06;98449.85;;;15.04;72.39
50302;BME280;36550;50.472;19.744;2022-07-21T03:26:51;98441.97;;;15.09;72.26
50302;BME280;36550;50.472;19.744;2022-07-21T03:29:35;98439.66;;;15.15;72.27
50302;BME280;36550;50.472;19.744;2022-07-21T03:32:19;98450.28;;;15.23;72.20
50302;BME280;36550;50.472;19.744;2022-07-21T03:35:04;98443.71;;;15.28;72.16
50302;BME280;36550;50.472;19.744;2022-07-21T03:37:52;98445.09;;;15.38;72.14
50302;BME280;36550;50.472;19.744;2022-07-21T03:40:38;98454.17;;;15.52;72.07
50302;BME280;36550;50.472;19.744;2022-07-21T03:43:24;98457.17;;;15.66;72.12
50302;BME280;36550;50.472;19.744;2022-07-21T03:46:08;98454.37;;;15.86;71.89
50302;BME280;36550;50.472;19.744;2022-07-21T03:48:52;98448.89;;;15.97;71.77
50302;BME280;36550;50.472;19.744;2022-07-21T03:51:37;98442.85;;;16.12;71.80
50302;BME280;36550;50.472;19.744;2022-07-21T03:54:21;98441.31;;;16.27;71.76
50302;BME280;36550;50.472;19.744;2022-07-21T03:57:05;98439.49;;;16.38;71.59
50302;BME280;36550;50.472;19.744;2022-07-21T03:59:49;98431.55;;;16.48;71.48
50302;BME280;36550;50.472;19.744;2022-07-21T04:02:34;98431.86;;;16.67;71.25
50302;BME280;36550;50.472;19.744;2022-07-21T04:05:19;98428.70;;;16.83;71.11
50302;BME280;36550;50.472;19.744;2022-07-21T04:08:05;98421.30;;;16.92;71.07
50302;BME280;36550;50.472;19.744;2022-07-21T04:10:50;98423.94;;;17.03;70.89
50302;BME280;36550;50.472;19.744;2022-07-21T04:13:34;98426.31;;;17.07;70.82
50302;BME280;36550;50.472;19.744;2022-07-21T04:16:18;98425.27;;;17.13;70.73
50302;BME280;36550;50.472;19.744;2022-07-21T04:19:02;98425.76;;;17.30;70.91
50302;BME280;36550;50.472;19.744;2022-07-21T04:21:46;98425.76;;;17.30;70.91
50302;BME280;36550;50.472;19.744;2022-07-21T04:24:30;98432.89;;;17.45;71.01
50302;BME280;36550;50.472;19.744;2022-07-21T04:27:14;98424.91;;;17.58;71.02
50302;BME280;36550;50.472;19.744;2022-07-21T04:29:59;98429.91;;;17.73;70.96
50302;BME280;36550;50.472;19.744;2022-07-21T04:32:43;98430.71;;;17.86;70.88
50302;BME280;36550;50.472;19.744;2022-07-21T04:35:27;98430.39;;;17.98;70.77
50302;BME280;36550;50.472;19.744;2022-07-21T04:38:12;98432.47;;;18.08;70.56
50302;BME280;36550;50.472;19.744;2022-07-21T04:40:56;98430.05;;;18.17;70.47
50302;BME280;36550;50.472;19.744;2022-07-21T04:43:40;98431.30;;;18.27;70.34
50302;BME280;36550;50.472;19.744;2022-07-21T04:46:25;98446.38;;;18.40;70.31
50302;BME280;36550;50.472;19.744;2022-07-21T04:49:09;98444.63;;;18.64;70.19
50302;BME280;36550;50.472;19.744;2022-07-21T04:51:53;98449.85;;;18.82;70.10
50302;BME280;36550;50.472;19.744;2022-07-21T04:54:38;98443.08;;;19.00;69.96
50302;BME280;36550;50.472;19.744;2022-07-21T04:57:22;98445.31;;;19.17;69.94
50302;BME280;36550;50.472;19.744;2022-07-21T05:00:09;98446.36;;;19.51;69.80
50302;BME280;36550;50.472;19.744;2022-07-21T05:02:54;98451.05;;;20.10;69.64
50302;BME280;36550;50.472;19.744;2022-07-21T05:05:39;98448.09;;;20.71;69.27
50302;BME280;36550;50.472;19.744;2022-07-21T05:08:23;98442.14;;;21.26;68.59
50302;BME280;36550;50.472;19.744;2022-07-21T05:11:10;98450.23;;;21.81;67.97
50302;BME280;36550;50.472;19.744;2022-07-21T05:13:54;98444.23;;;22.15;67.77
50302;BME280;36550;50.472;19.744;2022-07-21T05:16:38;98439.09;;;22.55;66.86
50302;BME280;36550;50.472;19.744;2022-07-21T05:19:23;98436.57;;;23.06;65.94
50302;BME280;36550;50.472;19.744;2022-07-21T05:22:07;98440.20;;;23.53;64.62
50302;BME280;36550;50.472;19.744;2022-07-21T05:24:51;98440.83;;;23.90;63.63
50302;BME280;36550;50.472;19.744;2022-07-21T05:27:36;98446.44;;;23.99;62.83
50302;BME280;36550;50.472;19.744;2022-07-21T05:30:20;98451.60;;;24.16;62.08
50302;BME280;36550;50.472;19.744;2022-07-21T05:33:04;98456.70;;;24.35;61.93
50302;BME280;36550;50.472;19.744;2022-07-21T05:35:48;98454.45;;;24.57;61.37
50302;BME280;36550;50.472;19.744;2022-07-21T05:38:33;98452.87;;;24.73;61.12
50302;BME280;36550;50.472;19.744;2022-07-21T05:41:17;98450.41;;;24.92;60.14
50302;BME280;36550;50.472;19.744;2022-07-21T05:44:01;98444.52;;;25.07;59.07
50302;BME280;36550;50.472;19.744;2022-07-21T05:46:46;98444.75;;;25.17;57.99
50302;BME280;36550;50.472;19.744;2022-07-21T05:49:30;98454.05;;;25.37;57.08
50302;BME280;36550;50.472;19.744;2022-07-21T05:52:14;98456.52;;;25.51;55.94
50302;BME280;36550;50.472;19.744;2022-07-21T05:54:58;98452.36;;;25.62;54.33
50302;BME280;36550;50.472;19.744;2022-07-21T05:57:42;98450.66;;;25.72;54.59
50302;BME280;36550;50.472;19.744;2022-07-21T06:00:26;98449.36;;;25.79;54.13
50302;BME280;36550;50.472;19.744;2022-07-21T06:03:11;98455.02;;;25.86;53.39
50302;BME280;36550;50.472;19.744;2022-07-21T06:05:55;98448.12;;;25.91;53.38
50302;BME280;36550;50.472;19.744;2022-07-21T06:08:40;98447.86;;;25.99;52.51
50302;BME280;36550;50.472;19.744;2022-07-21T06:11:25;98446.79;;;26.06;52.63
50302;BME280;36550;50.472;19.744;2022-07-21T06:14:11;98445.27;;;26.11;51.10
50302;BME280;36550;50.472;19.744;2022-07-21T06:16:55;98450.94;;;26.24;52.24
50302;BME280;36550;50.472;19.744;2022-07-21T06:19:39;98446.72;;;26.29;51.55
50302;BME280;36550;50.472;19.744;2022-07-21T06:22:23;98443.73;;;26.37;51.92
50302;BME280;36550;50.472;19.744;2022-07-21T06:25:08;98444.91;;;26.48;51.77
50302;BME280;36550;50.472;19.744;2022-07-21T06:27:52;98444.17;;;26.54;50.70
50302;BME280;36550;50.472;19.744;2022-07-21T06:30:36;98446.97;;;26.58;50.03
50302;BME280;36550;50.472;19.744;2022-07-21T06:33:21;98457.52;;;26.57;49.71
50302;BME280;36550;50.472;19.744;2022-07-21T06:36:06;98460.21;;;26.57;49.39
50302;BME280;36550;50.472;19.744;2022-07-21T06:38:51;98456.79;;;26.62;49.99
50302;BME280;36550;50.472;19.744;2022-07-21T06:41:35;98458.96;;;26.69;50.30
50302;BME280;36550;50.472;19.744;2022-07-21T06:44:20;98462.32;;;26.72;50.14
50302;BME280;36550;50.472;19.744;2022-07-21T06:47:04;98467.38;;;26.74;49.56
50302;BME280;36550;50.472;19.744;2022-07-21T06:49:48;98463.34;;;26.74;50.06
50302;BME280;36550;50.472;19.744;2022-07-21T06:52:33;98466.86;;;26.80;49.65
50302;BME280;36550;50.472;19.744;2022-07-21T06:55:18;98465.97;;;26.82;49.36
50302;BME280;36550;50.472;19.744;2022-07-21T06:58:09;98469.56;;;26.86;49.44
50302;BME280;36550;50.472;19.744;2022-07-21T07:00:54;98464.30;;;26.90;49.48
50302;BME280;36550;50.472;19.744;2022-07-21T07:03:38;98456.59;;;26.95;49.25
50302;BME280;36550;50.472;19.744;2022-07-21T07:06:23;98459.98;;;27.04;48.87
50302;BME280;36550;50.472;19.744;2022-07-21T07:09:07;98459.42;;;27.11;48.88
50302;BME280;36550;50.472;19.744;2022-07-21T07:11:52;98457.98;;;27.13;48.89
50302;BME280;36550;50.472;19.744;2022-07-21T07:14:37;98463.17;;;27.18;48.89
50302;BME280;36550;50.472;19.744;2022-07-21T07:17:21;98462.27;;;27.20;48.91
50302;BME280;36550;50.472;19.744;2022-07-21T07:20:06;98461.98;;;27.28;48.51
50302;BME280;36550;50.472;19.744;2022-07-21T07:22:52;98462.22;;;27.35;47.75
50302;BME280;36550;50.472;19.744;2022-07-21T07:25:36;98460.09;;;27.41;46.87
50302;BME280;36550;50.472;19.744;2022-07-21T07:28:21;98461.34;;;27.50;48.26
50302;BME280;36550;50.472;19.744;2022-07-21T07:31:06;98471.89;;;27.55;48.04
50302;BME280;36550;50.472;19.744;2022-07-21T07:33:50;98475.72;;;27.48;47.15
50302;BME280;36550;50.472;19.744;2022-07-21T07:36:34;98476.83;;;27.46;47.98
50302;BME280;36550;50.472;19.744;2022-07-21T07:39:19;98479.08;;;27.44;47.86
50302;BME280;36550;50.472;19.744;2022-07-21T07:42:04;98483.33;;;27.45;47.99
50302;BME280;36550;50.472;19.744;2022-07-21T07:44:48;98476.59;;;27.45;47.63
50302;BME280;36550;50.472;19.744;2022-07-21T07:47:34;98478.72;;;27.40;47.27
50302;BME280;36550;50.472;19.744;2022-07-21T07:50:18;98479.53;;;27.40;47.13
50302;BME280;36550;50.472;19.744;2022-07-21T07:53:02;98479.73;;;27.41;47.26
50302;BME280;36550;50.472;19.744;2022-07-21T07:55:46;98480.09;;;27.46;47.17
50302;BME280;36550;50.472;19.744;2022-07-21T07:58:31;98489.53;;;27.52;46.89
50302;BME280;36550;50.472;19.744;2022-07-21T08:01:15;98489.65;;;27.56;47.03
50302;BME280;36550;50.472;19.744;2022-07-21T08:04:00;98493.81;;;27.59;47.02
50302;BME280;36550;50.472;19.744;2022-07-21T08:06:45;98495.84;;;27.69;47.26
50302;BME280;36550;50.472;19.744;2022-07-21T08:09:30;98498.66;;;27.78;46.92
50302;BME280;36550;50.472;19.744;2022-07-21T08:12:14;98499.90;;;27.87;47.02
50302;BME280;36550;50.472;19.744;2022-07-21T08:14:58;98499.58;;;27.95;46.63
50302;BME280;36550;50.472;19.744;2022-07-21T08:17:42;98496.33;;;28.01;46.70
50302;BME280;36550;50.472;19.744;2022-07-21T08:20:27;98492.61;;;28.06;46.28
50302;BME280;36550;50.472;19.744;2022-07-21T08:23:13;98488.58;;;28.12;46.27
50302;BME280;36550;50.472;19.744;2022-07-21T08:25:57;98483.59;;;28.20;46.27
50302;BME280;36550;50.472;19.744;2022-07-21T08:28:41;98480.34;;;28.27;46.08
50302;BME280;36550;50.472;19.744;2022-07-21T08:31:25;98486.42;;;28.30;46.00
50302;BME280;36550;50.472;19.744;2022-07-21T08:34:09;98482.00;;;28.32;45.17
50302;BME280;36550;50.472;19.744;2022-07-21T08:36:54;98486.73;;;28.35;45.57
50302;BME280;36550;50.472;19.744;2022-07-21T08:39:38;98479.54;;;28.33;45.00
50302;BME280;36550;50.472;19.744;2022-07-21T08:42:23;98478.77;;;28.32;44.90
50302;BME280;36550;50.472;19.744;2022-07-21T08:45:07;98479.88;;;28.37;44.51
50302;BME280;36550;50.472;19.744;2022-07-21T08:47:53;98485.48;;;28.38;44.28
50302;BME280;36550;50.472;19.744;2022-07-21T08:50:39;98486.73;;;28.41;44.43
50302;BME280;36550;50.472;19.744;2022-07-21T08:53:25;98481.34;;;28.41;43.52
50302;BME280;36550;50.472;19.744;2022-07-21T08:56:09;98473.78;;;28.40;43.71
50302;BME280;36550;50.472;19.744;2022-07-21T08:58:54;98481.31;;;28.47;44.29
50302;BME280;36550;50.472;19.744;2022-07-21T09:01:38;98474.66;;;28.51;43.31
50302;BME280;36550;50.472;19.744;2022-07-21T09:04:28;98471.08;;;28.40;40.48
50302;BME280;36550;50.472;19.744;2022-07-21T09:07:13;98468.52;;;28.38;42.26
50302;BME280;36550;50.472;19.744;2022-07-21T09:10:02;98463.86;;;28.45;42.59
50302;BME280;36550;50.472;19.744;2022-07-21T09:12:52;98457.32;;;28.52;42.67
50302;BME280;36550;50.472;19.744;2022-07-21T09:15:39;98457.34;;;28.58;42.58
50302;BME280;36550;50.472;19.744;2022-07-21T09:18:23;98458.90;;;28.65;42.56
50302;BME280;36550;50.472;19.744;2022-07-21T09:21:09;98462.04;;;28.67;41.64
50302;BME280;36550;50.472;19.744;2022-07-21T09:27:04;98465.48;;;28.74;41.61
50302;BME280;36550;50.472;19.744;2022-07-21T09:29:53;98457.84;;;28.76;41.58
50302;BME280;36550;50.472;19.744;2022-07-21T09:32:39;98452.08;;;28.77;41.30
50302;BME280;36550;50.472;19.744;2022-07-21T09:35:24;98456.84;;;28.74;39.06
50302;BME280;36550;50.472;19.744;2022-07-21T09:38:12;98457.61;;;28.75;40.34
50302;BME280;36550;50.472;19.744;2022-07-21T09:41:09;98453.56;;;28.75;40.88
50302;BME280;36550;50.472;19.744;2022-07-21T09:44:00;98453.94;;;28.67;39.49
50302;BME280;36550;50.472;19.744;2022-07-21T09:46:44;98452.89;;;28.72;40.53
50302;BME280;36550;50.472;19.744;2022-07-21T09:49:31;98458.56;;;28.67;39.44
50302;BME280;36550;50.472;19.744;2022-07-21T09:52:33;98452.45;;;28.76;40.69
50302;BME280;36550;50.472;19.744;2022-07-21T09:55:19;98457.48;;;28.77;39.34
50302;BME280;36550;50.472;19.744;2022-07-21T09:58:03;98448.59;;;28.77;39.98
50302;BME280;36550;50.472;19.744;2022-07-21T10:00:47;98447.82;;;28.76;40.01
50302;BME280;36550;50.472;19.744;2022-07-21T10:03:34;98446.67;;;28.77;39.64
50302;BME280;36550;50.472;19.744;2022-07-21T10:06:24;98451.73;;;28.85;40.55
50302;BME280;36550;50.472;19.744;2022-07-21T10:09:11;98459.02;;;28.91;40.21
50302;BME280;36550;50.472;19.744;2022-07-21T10:11:55;98451.45;;;28.90;39.06
50302;BME280;36550;50.472;19.744;2022-07-21T10:14:40;98444.59;;;28.93;39.95
50302;BME280;36550;50.472;19.744;2022-07-21T10:17:25;98443.11;;;28.95;39.04
50302;BME280;36550;50.472;19.744;2022-07-21T10:20:24;98444.21;;;29.01;39.46
50302;BME280;36550;50.472;19.744;2022-07-21T10:23:18;98445.50;;;29.13;39.62
50302;BME280;36550;50.472;19.744;2022-07-21T10:26:05;98442.88;;;29.23;39.09
50302;BME280;36550;50.472;19.744;2022-07-21T10:28:50;98438.17;;;29.35;39.69
50302;BME280;36550;50.472;19.744;2022-07-21T10:31:41;98437.31;;;29.47;39.65
50302;BME280;36550;50.472;19.744;2022-07-21T10:34:35;98442.44;;;29.52;39.48
50302;BME280;36550;50.472;19.744;2022-07-21T10:46:36;98430.18;;;29.49;38.30
50302;BME280;36550;50.472;19.744;2022-07-21T10:49:40;98427.84;;;29.47;38.32
50302;BME280;36550;50.472;19.744;2022-07-21T10:55:31;98420.45;;;29.54;38.38
50302;BME280;36550;50.472;19.744;2022-07-21T10:58:39;98419.07;;;29.60;38.83
50302;BME280;36550;50.472;19.744;2022-07-21T11:01:26;98429.41;;;29.64;38.24
50302;BME280;36550;50.472;19.744;2022-07-21T11:04:13;98422.64;;;29.64;37.69
50302;BME280;36550;50.472;19.744;2022-07-21T11:07:00;98429.91;;;29.70;37.72
50302;BME280;36550;50.472;19.744;2022-07-21T11:10:31;98431.93;;;29.73;37.16
50302;BME280;36550;50.472;19.744;2022-07-21T11:12:57;98427.98;;;29.77;37.13
50302;BME280;36550;50.472;19.744;2022-07-21T11:15:53;98428.84;;;29.81;36.57
50302;BME280;36550;50.472;19.744;2022-07-21T11:18:41;98426.56;;;29.83;36.67
50302;BME280;36550;50.472;19.744;2022-07-21T11:21:26;98425.21;;;29.83;34.68
50302;BME280;36550;50.472;19.744;2022-07-21T11:24:17;98425.06;;;29.85;35.05
50302;BME280;36550;50.472;19.744;2022-07-21T11:27:09;98421.44;;;29.87;35.48
50302;BME280;36550;50.472;19.744;2022-07-21T11:29:57;98425.14;;;29.89;33.77
50302;BME280;36550;50.472;19.744;2022-07-21T11:32:46;98423.75;;;29.95;34.62
50302;BME280;36550;50.472;19.744;2022-07-21T11:35:36;98422.60;;;29.96;35.15
50302;BME280;36550;50.472;19.744;2022-07-21T11:38:21;98418.97;;;29.98;35.35
50302;BME280;36550;50.472;19.744;2022-07-21T11:41:18;98413.63;;;30.02;35.15
50302;BME280;36550;50.472;19.744;2022-07-21T11:44:04;98418.27;;;30.01;34.86
50302;BME280;36550;50.472;19.744;2022-07-21T11:46:51;98408.02;;;30.01;34.82
50302;BME280;36550;50.472;19.744;2022-07-21T11:49:37;98415.56;;;30.01;35.04
50302;BME280;36550;50.472;19.744;2022-07-21T11:52:27;98417.34;;;30.03;34.73
50302;BME280;36550;50.472;19.744;2022-07-21T11:55:13;98413.09;;;30.02;34.69
50302;BME280;36550;50.472;19.744;2022-07-21T11:57:57;98403.23;;;30.04;34.12
50302;BME280;36550;50.472;19.744;2022-07-21T12:00:41;98403.69;;;30.06;34.22
50302;BME280;36550;50.472;19.744;2022-07-21T12:03:25;98408.53;;;30.06;33.35
50302;BME280;36550;50.472;19.744;2022-07-21T12:06:10;98410.88;;;30.08;34.45
50302;BME280;36550;50.472;19.744;2022-07-21T12:08:54;98402.61;;;30.10;33.18
50302;BME280;36550;50.472;19.744;2022-07-21T12:11:39;98395.14;;;30.13;34.31
50302;BME280;36550;50.472;19.744;2022-07-21T12:14:39;98391.63;;;30.13;34.48
50302;BME280;36550;50.472;19.744;2022-07-21T12:17:38;98392.09;;;30.15;33.74
50302;BME280;36550;50.472;19.744;2022-07-21T12:20:32;98389.16;;;30.14;32.67
50302;BME280;36550;50.472;19.744;2022-07-21T12:23:25;98392.28;;;30.26;33.59
50302;BME280;36550;50.472;19.744;2022-07-21T12:26:19;98389.58;;;30.26;33.06
50302;BME280;36550;50.472;19.744;2022-07-21T12:29:05;98390.03;;;30.28;33.61
50302;BME280;36550;50.472;19.744;2022-07-21T12:31:49;98391.58;;;30.29;33.46
50302;BME280;36550;50.472;19.744;2022-07-21T12:34:48;98377.61;;;30.27;33.89
50302;BME280;36550;50.472;19.744;2022-07-21T12:37:53;98380.97;;;30.30;33.94
50302;BME280;36550;50.472;19.744;2022-07-21T12:40:45;98377.27;;;30.28;33.60
50302;BME280;36550;50.472;19.744;2022-07-21T12:43:31;98382.68;;;30.28;33.53
50302;BME280;36550;50.472;19.744;2022-07-21T12:46:16;98384.03;;;30.28;32.56
50302;BME280;36550;50.472;19.744;2022-07-21T12:49:08;98386.11;;;30.35;33.56
50302;BME280;36550;50.472;19.744;2022-07-21T12:51:56;98385.76;;;30.37;33.34
50302;BME280;36550;50.472;19.744;2022-07-21T12:54:40;98383.86;;;30.37;33.27
50302;BME280;36550;50.472;19.744;2022-07-21T12:57:27;98374.73;;;30.36;32.71
50302;BME280;36550;50.472;19.744;2022-07-21T13:00:12;98378.56;;;30.35;32.59
50302;BME280;36550;50.472;19.744;2022-07-21T13:02:57;98377.34;;;30.32;32.77
50302;BME280;36550;50.472;19.744;2022-07-21T13:05:42;98374.30;;;30.34;32.58
50302;BME280;36550;50.472;19.744;2022-07-21T13:08:26;98373.38;;;30.36;32.91
50302;BME280;36550;50.472;19.744;2022-07-21T13:11:14;98372.80;;;30.36;32.97
50302;BME280;36550;50.472;19.744;2022-07-21T13:14:00;98366.18;;;30.34;32.40
50302;BME280;36550;50.472;19.744;2022-07-21T13:16:45;98367.38;;;30.36;32.36
50302;BME280;36550;50.472;19.744;2022-07-21T13:19:29;98355.48;;;30.41;33.06
50302;BME280;36550;50.472;19.744;2022-07-21T13:22:14;98356.46;;;30.42;32.42
50302;BME280;36550;50.472;19.744;2022-07-21T13:24:58;98353.63;;;30.45;31.51
50302;BME280;36550;50.472;19.744;2022-07-21T13:27:42;98346.50;;;30.46;31.28
50302;BME280;36550;50.472;19.744;2022-07-21T13:30:27;98344.56;;;30.47;31.75
50302;BME280;36550;50.472;19.744;2022-07-21T13:33:11;98352.12;;;30.47;31.47
50302;BME280;36550;50.472;19.744;2022-07-21T13:35:55;98346.13;;;30.48;31.75
50302;BME280;36550;50.472;19.744;2022-07-21T13:38:40;98342.86;;;30.48;31.72
50302;BME280;36550;50.472;19.744;2022-07-21T13:41:24;98340.92;;;30.49;31.74
50302;BME280;36550;50.472;19.744;2022-07-21T13:44:09;98340.34;;;30.49;30.48
50302;BME280;36550;50.472;19.744;2022-07-21T13:46:53;98334.94;;;30.49;30.83
50302;BME280;36550;50.472;19.744;2022-07-21T13:49:37;98338.45;;;30.50;30.15
50302;BME280;36550;50.472;19.744;2022-07-21T13:52:21;98330.39;;;30.54;30.59
50302;BME280;36550;50.472;19.744;2022-07-21T13:55:06;98335.29;;;30.58;30.78
50302;BME280;36550;50.472;19.744;2022-07-21T13:57:51;98334.94;;;30.59;30.89
50302;BME280;36550;50.472;19.744;2022-07-21T14:00:35;98330.65;;;30.58;30.62
50302;BME280;36550;50.472;19.744;2022-07-21T14:03:20;98334.13;;;30.59;31.19
50302;BME280;36550;50.472;19.744;2022-07-21T14:06:04;98332.42;;;30.60;31.61
50302;BME280;36550;50.472;19.744;2022-07-21T14:08:49;98332.84;;;30.62;31.89
50302;BME280;36550;50.472;19.744;2022-07-21T14:11:33;98325.52;;;30.63;31.86
50302;BME280;36550;50.472;19.744;2022-07-21T14:14:19;98326.48;;;30.64;31.73
50302;BME280;36550;50.472;19.744;2022-07-21T14:17:05;98327.71;;;30.67;31.91
50302;BME280;36550;50.472;19.744;2022-07-21T14:19:50;98325.71;;;30.64;29.83
50302;BME280;36550;50.472;19.744;2022-07-21T14:22:34;98326.55;;;30.68;30.37
50302;BME280;36550;50.472;19.744;2022-07-21T14:25:19;98333.77;;;30.70;30.85
50302;BME280;36550;50.472;19.744;2022-07-21T14:28:03;98334.19;;;30.72;31.02
50302;BME280;36550;50.472;19.744;2022-07-21T14:30:47;98324.48;;;30.71;30.57
50302;BME280;36550;50.472;19.744;2022-07-21T14:33:32;98327.00;;;30.70;30.85
50302;BME280;36550;50.472;19.744;2022-07-21T14:36:16;98322.94;;;30.70;30.44
50302;BME280;36550;50.472;19.744;2022-07-21T14:39:00;98317.88;;;30.68;30.29
50302;BME280;36550;50.472;19.744;2022-07-21T14:41:44;98316.30;;;30.67;30.05